DNKN/KAN METAR and TAF weather

Enter ICAO airport designator
Station Type Date Time Source
DNKN METAR 2022/01/26 12:00 UTC NOAA

DNKN 261200Z 06013KT 8000 NSC 26/M01 Q1018 NOSIG


Station Type Date Time Source
DNKN Decoded METAR 2022/01/26 12:00 UTC NOAA

Kano, Nigeria (DNKN) 12-03N 008-32E 481M
Jan 26, 2022 - 07:00 AM EST / 2022.01.26 1200 UTC
Wind: from the ENE (060 degrees) at 15 MPH (13 KT):0
Visibility: 4 mile(s):0
Temperature: 78 F (26 C)
Dew Point: 30 F (-1 C)
Relative Humidity: 16%
Pressure (altimeter): 30.06 in. Hg (1018 hPa)
ob: DNKN 261200Z 06013KT 8000 NSC 26/M01 Q1018 NOSIG
cycle: 12

Station Type Date Time Source
DNKN TAF 2022/01/26 12:06 UTC NOAA

TAF TAF DNKN 261100Z 2612/2718 06010KT CAVOK
TEMPO 2707/2713 5000 HZ

Example: see airport list